sensor_id;sensor_type;location;lat;lon;timestamp;pressure;altitude;pressure_sealevel;temperature;humidity
63281;BME280;49406;51.044;3.766;2022-12-07T00:00:17;102072.07;;;4.36;100.00
63281;BME280;49406;51.044;3.766;2022-12-07T00:02:52;102066.48;;;4.35;100.00
63281;BME280;49406;51.044;3.766;2022-12-07T00:05:26;102066.39;;;4.33;100.00
63281;BME280;49406;51.044;3.766;2022-12-07T00:07:59;102063.00;;;4.31;100.00
63281;BME280;49406;51.044;3.766;2022-12-07T00:10:35;102061.11;;;4.32;100.00
63281;BME280;49406;51.044;3.766;2022-12-07T00:13:08;102055.29;;;4.33;100.00
63281;BME280;49406;51.044;3.766;2022-12-07T00:15:43;102052.29;;;4.32;100.00
63281;BME280;49406;51.044;3.766;2022-12-07T00:18:18;102054.71;;;4.28;100.00
63281;BME280;49406;51.044;3.766;2022-12-07T00:20:52;102056.52;;;4.27;100.00
63281;BME280;49406;51.044;3.766;2022-12-07T00:23:27;102050.98;;;4.20;100.00
63281;BME280;49406;51.044;3.766;2022-12-07T00:26:07;102052.08;;;4.11;100.00
63281;BME280;49406;51.044;3.766;2022-12-07T00:28:42;102051.88;;;4.01;100.00
63281;BME280;49406;51.044;3.766;2022-12-07T00:31:21;102052.78;;;3.92;100.00
63281;BME280;49406;51.044;3.766;2022-12-07T00:33:56;102056.24;;;3.86;100.00
63281;BME280;49406;51.044;3.766;2022-12-07T00:36:29;102058.46;;;3.83;100.00
63281;BME280;49406;51.044;3.766;2022-12-07T00:39:02;102056.70;;;3.82;100.00
63281;BME280;49406;51.044;3.766;2022-12-07T00:41:37;102052.46;;;3.83;100.00
63281;BME280;49406;51.044;3.766;2022-12-07T00:44:12;102048.83;;;3.83;100.00
63281;BME280;49406;51.044;3.766;2022-12-07T00:46:45;102056.52;;;3.82;100.00
63281;BME280;49406;51.044;3.766;2022-12-07T00:49:19;102054.77;;;3.78;100.00
63281;BME280;49406;51.044;3.766;2022-12-07T00:51:54;102057.31;;;3.74;100.00
63281;BME280;49406;51.044;3.766;2022-12-07T00:54:29;102053.39;;;3.66;100.00
63281;BME280;49406;51.044;3.766;2022-12-07T00:57:04;102055.03;;;3.61;100.00
63281;BME280;49406;51.044;3.766;2022-12-07T00:59:38;102052.85;;;3.56;100.00
63281;BME280;49406;51.044;3.766;2022-12-07T01:02:13;102052.82;;;3.50;100.00
63281;BME280;49406;51.044;3.766;2022-12-07T01:04:48;102044.24;;;3.38;100.00
63281;BME280;49406;51.044;3.766;2022-12-07T01:07:22;102046.23;;;3.34;100.00
63281;BME280;49406;51.044;3.766;2022-12-07T01:09:57;102045.28;;;3.26;100.00
63281;BME280;49406;51.044;3.766;2022-12-07T01:12:32;102043.80;;;3.18;100.00
63281;BME280;49406;51.044;3.766;2022-12-07T01:15:06;102044.02;;;3.16;100.00
63281;BME280;49406;51.044;3.766;2022-12-07T01:17:41;102046.31;;;3.17;100.00
63281;BME280;49406;51.044;3.766;2022-12-07T01:20:16;102048.23;;;3.17;100.00
63281;BME280;49406;51.044;3.766;2022-12-07T01:22:49;102043.83;;;3.13;100.00
63281;BME280;49406;51.044;3.766;2022-12-07T01:25:24;102042.25;;;3.09;100.00
63281;BME280;49406;51.044;3.766;2022-12-07T01:27:58;102039.27;;;3.05;100.00
63281;BME280;49406;51.044;3.766;2022-12-07T01:30:33;102039.48;;;2.98;100.00
63281;BME280;49406;51.044;3.766;2022-12-07T01:33:08;102038.56;;;2.90;100.00
63281;BME280;49406;51.044;3.766;2022-12-07T01:35:41;102042.64;;;2.89;100.00
63281;BME280;49406;51.044;3.766;2022-12-07T01:38:15;102047.66;;;2.89;100.00
63281;BME280;49406;51.044;3.766;2022-12-07T01:40:56;102053.53;;;2.98;100.00
63281;BME280;49406;51.044;3.766;2022-12-07T01:43:32;102063.42;;;3.11;100.00
63281;BME280;49406;51.044;3.766;2022-12-07T01:46:05;102063.60;;;3.29;100.00
63281;BME280;49406;51.044;3.766;2022-12-07T01:48:43;102058.73;;;3.44;100.00
63281;BME280;49406;51.044;3.766;2022-12-07T01:51:16;102049.69;;;3.55;100.00
63281;BME280;49406;51.044;3.766;2022-12-07T01:53:50;102052.46;;;3.64;100.00
63281;BME280;49406;51.044;3.766;2022-12-07T01:56:27;102052.54;;;3.72;100.00
63281;BME280;49406;51.044;3.766;2022-12-07T01:59:03;102050.13;;;3.79;100.00
63281;BME280;49406;51.044;3.766;2022-12-07T02:01:37;102046.77;;;3.81;100.00
63281;BME280;49406;51.044;3.766;2022-12-07T02:04:10;102039.27;;;3.76;100.00
63281;BME280;49406;51.044;3.766;2022-12-07T02:06:46;102040.77;;;3.75;100.00
63281;BME280;49406;51.044;3.766;2022-12-07T02:09:21;102043.94;;;3.70;100.00
63281;BME280;49406;51.044;3.766;2022-12-07T02:11:56;102043.61;;;3.64;100.00
63281;BME280;49406;51.044;3.766;2022-12-07T02:14:31;102040.94;;;3.56;100.00
63281;BME280;49406;51.044;3.766;2022-12-07T02:17:11;102037.95;;;3.46;100.00
63281;BME280;49406;51.044;3.766;2022-12-07T02:20:28;102032.45;;;3.38;100.00
63281;BME280;49406;51.044;3.766;2022-12-07T02:29:11;102035.80;;;3.17;100.00
63281;BME280;49406;51.044;3.766;2022-12-07T02:31:53;102033.69;;;3.17;100.00
63281;BME280;49406;51.044;3.766;2022-12-07T02:34:37;102033.48;;;3.13;100.00
63281;BME280;49406;51.044;3.766;2022-12-07T02:37:21;102034.61;;;3.09;100.00
63281;BME280;49406;51.044;3.766;2022-12-07T02:40:04;102031.08;;;3.02;100.00
63281;BME280;49406;51.044;3.766;2022-12-07T02:42:44;102031.65;;;2.96;100.00
63281;BME280;49406;51.044;3.766;2022-12-07T02:45:22;102028.65;;;2.92;100.00
63281;BME280;49406;51.044;3.766;2022-12-07T02:48:00;102026.80;;;2.90;100.00
63281;BME280;49406;51.044;3.766;2022-12-07T02:50:36;102027.20;;;2.91;100.00
63281;BME280;49406;51.044;3.766;2022-12-07T02:53:31;102035.91;;;2.95;100.00
63281;BME280;49406;51.044;3.766;2022-12-07T02:56:13;102032.10;;;3.04;100.00
63281;BME280;49406;51.044;3.766;2022-12-07T02:59:01;102027.02;;;3.09;100.00
63281;BME280;49406;51.044;3.766;2022-12-07T03:01:35;102028.71;;;3.12;100.00
63281;BME280;49406;51.044;3.766;2022-12-07T03:04:14;102024.88;;;3.14;100.00
63281;BME280;49406;51.044;3.766;2022-12-07T03:06:56;102026.92;;;3.16;100.00
63281;BME280;49406;51.044;3.766;2022-12-07T03:09:40;102023.61;;;3.19;100.00
63281;BME280;49406;51.044;3.766;2022-12-07T03:12:20;102027.11;;;3.22;100.00
63281;BME280;49406;51.044;3.766;2022-12-07T03:15:02;102029.56;;;3.26;100.00
63281;BME280;49406;51.044;3.766;2022-12-07T03:17:40;102021.88;;;3.31;100.00
63281;BME280;49406;51.044;3.766;2022-12-07T03:20:19;102019.58;;;3.33;100.00
63281;BME280;49406;51.044;3.766;2022-12-07T03:22:56;102023.71;;;3.33;100.00
63281;BME280;49406;51.044;3.766;2022-12-07T03:25:32;102022.60;;;3.28;100.00
63281;BME280;49406;51.044;3.766;2022-12-07T03:28:08;102019.70;;;3.20;100.00
63281;BME280;49406;51.044;3.766;2022-12-07T03:30:49;102013.58;;;3.10;100.00
63281;BME280;49406;51.044;3.766;2022-12-07T03:33:30;102011.84;;;3.00;100.00
63281;BME280;49406;51.044;3.766;2022-12-07T03:36:10;102010.66;;;2.89;100.00
63281;BME280;49406;51.044;3.766;2022-12-07T03:38:49;102002.14;;;2.79;100.00
63281;BME280;49406;51.044;3.766;2022-12-07T03:41:31;102001.59;;;2.66;100.00
63281;BME280;49406;51.044;3.766;2022-12-07T03:44:08;102006.97;;;2.55;100.00
63281;BME280;49406;51.044;3.766;2022-12-07T03:46:47;102005.98;;;2.42;100.00
63281;BME280;49406;51.044;3.766;2022-12-07T03:49:23;102008.34;;;2.29;100.00
63281;BME280;49406;51.044;3.766;2022-12-07T03:52:06;102009.39;;;2.18;100.00
63281;BME280;49406;51.044;3.766;2022-12-07T03:54:47;102007.52;;;2.10;100.00
63281;BME280;49406;51.044;3.766;2022-12-07T03:57:24;102007.64;;;2.01;100.00
63281;BME280;49406;51.044;3.766;2022-12-07T03:59:59;102008.06;;;1.93;100.00
63281;BME280;49406;51.044;3.766;2022-12-07T04:02:34;102005.64;;;1.85;100.00
63281;BME280;49406;51.044;3.766;2022-12-07T04:05:10;102004.05;;;1.79;100.00
63281;BME280;49406;51.044;3.766;2022-12-07T04:07:45;102006.23;;;1.78;100.00
63281;BME280;49406;51.044;3.766;2022-12-07T04:10:20;102006.77;;;1.84;100.00
63281;BME280;49406;51.044;3.766;2022-12-07T04:12:55;102008.15;;;1.86;100.00
63281;BME280;49406;51.044;3.766;2022-12-07T04:15:30;102009.91;;;1.85;100.00
63281;BME280;49406;51.044;3.766;2022-12-07T04:18:04;102009.61;;;1.80;100.00
63281;BME280;49406;51.044;3.766;2022-12-07T04:20:39;102010.50;;;1.77;100.00
63281;BME280;49406;51.044;3.766;2022-12-07T04:23:14;102010.77;;;1.76;100.00
63281;BME280;49406;51.044;3.766;2022-12-07T04:25:50;102010.52;;;1.75;100.00
63281;BME280;49406;51.044;3.766;2022-12-07T04:28:25;102011.60;;;1.70;100.00
63281;BME280;49406;51.044;3.766;2022-12-07T04:31:00;102012.19;;;1.66;100.00
63281;BME280;49406;51.044;3.766;2022-12-07T04:33:34;102011.47;;;1.63;100.00
63281;BME280;49406;51.044;3.766;2022-12-07T04:36:09;102007.02;;;1.60;100.00
63281;BME280;49406;51.044;3.766;2022-12-07T04:38:44;102007.92;;;1.67;100.00
63281;BME280;49406;51.044;3.766;2022-12-07T04:41:19;102012.29;;;1.68;100.00
63281;BME280;49406;51.044;3.766;2022-12-07T04:44:02;102008.27;;;1.69;100.00
63281;BME280;49406;51.044;3.766;2022-12-07T04:46:37;102005.64;;;1.68;100.00
63281;BME280;49406;51.044;3.766;2022-12-07T04:49:12;102006.92;;;1.69;100.00
63281;BME280;49406;51.044;3.766;2022-12-07T04:51:47;102004.18;;;1.70;100.00
63281;BME280;49406;51.044;3.766;2022-12-07T04:54:22;102019.43;;;1.71;100.00
63281;BME280;49406;51.044;3.766;2022-12-07T04:56:57;102025.31;;;1.85;100.00
63281;BME280;49406;51.044;3.766;2022-12-07T04:59:31;102029.77;;;2.07;100.00
63281;BME280;49406;51.044;3.766;2022-12-07T05:02:06;102026.35;;;2.27;100.00
63281;BME280;49406;51.044;3.766;2022-12-07T05:04:39;102017.83;;;2.46;100.00
63281;BME280;49406;51.044;3.766;2022-12-07T05:07:14;102013.64;;;2.60;100.00
63281;BME280;49406;51.044;3.766;2022-12-07T05:09:48;102008.25;;;2.68;100.00
63281;BME280;49406;51.044;3.766;2022-12-07T05:12:23;102003.43;;;2.78;100.00
63281;BME280;49406;51.044;3.766;2022-12-07T05:14:57;102003.92;;;2.80;100.00
63281;BME280;49406;51.044;3.766;2022-12-07T05:17:32;102002.67;;;2.79;100.00
63281;BME280;49406;51.044;3.766;2022-12-07T05:20:06;102000.60;;;2.80;100.00
63281;BME280;49406;51.044;3.766;2022-12-07T05:22:41;102006.55;;;2.81;100.00
63281;BME280;49406;51.044;3.766;2022-12-07T05:25:15;102003.05;;;2.80;100.00
63281;BME280;49406;51.044;3.766;2022-12-07T05:27:50;102006.39;;;2.78;100.00
63281;BME280;49406;51.044;3.766;2022-12-07T05:30:26;102003.98;;;2.78;100.00
63281;BME280;49406;51.044;3.766;2022-12-07T05:33:01;102002.89;;;2.77;100.00
63281;BME280;49406;51.044;3.766;2022-12-07T05:35:34;102005.77;;;2.76;100.00
63281;BME280;49406;51.044;3.766;2022-12-07T05:38:09;102001.41;;;2.69;100.00
63281;BME280;49406;51.044;3.766;2022-12-07T05:40:43;101998.44;;;2.66;100.00
63281;BME280;49406;51.044;3.766;2022-12-07T05:43:18;101994.64;;;2.63;100.00
63281;BME280;49406;51.044;3.766;2022-12-07T05:45:53;101991.27;;;2.61;100.00
63281;BME280;49406;51.044;3.766;2022-12-07T05:48:27;101986.33;;;2.56;100.00
63281;BME280;49406;51.044;3.766;2022-12-07T05:51:02;101988.68;;;2.47;100.00
63281;BME280;49406;51.044;3.766;2022-12-07T05:53:37;101985.10;;;2.39;100.00
63281;BME280;49406;51.044;3.766;2022-12-07T05:56:11;101990.48;;;2.31;100.00
63281;BME280;49406;51.044;3.766;2022-12-07T05:58:46;101988.09;;;2.22;100.00
63281;BME280;49406;51.044;3.766;2022-12-07T06:01:38;101986.85;;;2.14;100.00
63281;BME280;49406;51.044;3.766;2022-12-07T06:04:13;101989.58;;;2.10;100.00
63281;BME280;49406;51.044;3.766;2022-12-07T06:06:47;101998.34;;;2.09;100.00
63281;BME280;49406;51.044;3.766;2022-12-07T06:09:23;101992.19;;;2.10;100.00
63281;BME280;49406;51.044;3.766;2022-12-07T06:11:59;101986.77;;;2.09;100.00
63281;BME280;49406;51.044;3.766;2022-12-07T06:14:51;101982.34;;;2.10;100.00
63281;BME280;49406;51.044;3.766;2022-12-07T06:17:26;101982.16;;;2.09;100.00
63281;BME280;49406;51.044;3.766;2022-12-07T06:20:01;101986.11;;;2.13;100.00
63281;BME280;49406;51.044;3.766;2022-12-07T06:22:34;101987.03;;;2.22;100.00
63281;BME280;49406;51.044;3.766;2022-12-07T06:25:09;101995.21;;;2.32;100.00
63281;BME280;49406;51.044;3.766;2022-12-07T06:27:44;101995.13;;;2.42;100.00
63281;BME280;49406;51.044;3.766;2022-12-07T06:30:19;101997.00;;;2.50;100.00
63281;BME280;49406;51.044;3.766;2022-12-07T06:32:52;101992.19;;;2.53;100.00
63281;BME280;49406;51.044;3.766;2022-12-07T06:35:27;101993.86;;;2.58;100.00
63281;BME280;49406;51.044;3.766;2022-12-07T06:38:01;101987.66;;;2.59;100.00
63281;BME280;49406;51.044;3.766;2022-12-07T06:40:36;101990.40;;;2.55;100.00
63281;BME280;49406;51.044;3.766;2022-12-07T06:43:09;101997.73;;;2.51;100.00
63281;BME280;49406;51.044;3.766;2022-12-07T06:45:44;102003.54;;;2.50;100.00
63281;BME280;49406;51.044;3.766;2022-12-07T06:48:19;102003.50;;;2.49;100.00
63281;BME280;49406;51.044;3.766;2022-12-07T06:50:53;102006.64;;;2.50;100.00
63281;BME280;49406;51.044;3.766;2022-12-07T06:53:28;102019.65;;;2.56;100.00
63281;BME280;49406;51.044;3.766;2022-12-07T06:56:03;102020.48;;;2.65;100.00
63281;BME280;49406;51.044;3.766;2022-12-07T06:58:38;102012.61;;;2.72;100.00
63281;BME280;49406;51.044;3.766;2022-12-07T07:01:14;102005.49;;;2.75;100.00
63281;BME280;49406;51.044;3.766;2022-12-07T07:03:49;102006.11;;;2.76;100.00
63281;BME280;49406;51.044;3.766;2022-12-07T07:06:24;102006.42;;;2.76;100.00
63281;BME280;49406;51.044;3.766;2022-12-07T07:08:59;102004.33;;;2.75;100.00
63281;BME280;49406;51.044;3.766;2022-12-07T07:11:33;101998.40;;;2.74;100.00
63281;BME280;49406;51.044;3.766;2022-12-07T07:14:09;102000.63;;;2.74;100.00
63281;BME280;49406;51.044;3.766;2022-12-07T07:16:45;101998.48;;;2.72;100.00
63281;BME280;49406;51.044;3.766;2022-12-07T07:19:18;101993.79;;;2.69;100.00
63281;BME280;49406;51.044;3.766;2022-12-07T07:21:52;101989.02;;;2.64;100.00
63281;BME280;49406;51.044;3.766;2022-12-07T07:24:27;101998.32;;;2.61;100.00
63281;BME280;49406;51.044;3.766;2022-12-07T07:27:02;102001.52;;;2.57;100.00
63281;BME280;49406;51.044;3.766;2022-12-07T07:29:36;102008.54;;;2.52;100.00
63281;BME280;49406;51.044;3.766;2022-12-07T07:32:11;102012.03;;;2.51;100.00
63281;BME280;49406;51.044;3.766;2022-12-07T07:34:46;102013.58;;;2.53;100.00
63281;BME280;49406;51.044;3.766;2022-12-07T07:37:21;102013.23;;;2.59;100.00
63281;BME280;49406;51.044;3.766;2022-12-07T07:39:55;102008.84;;;2.63;100.00
63281;BME280;49406;51.044;3.766;2022-12-07T07:42:30;102011.02;;;2.68;100.00
63281;BME280;49406;51.044;3.766;2022-12-07T07:45:06;102004.12;;;2.74;100.00
63281;BME280;49406;51.044;3.766;2022-12-07T07:47:41;102005.80;;;2.80;100.00
63281;BME280;49406;51.044;3.766;2022-12-07T07:50:16;102004.91;;;2.83;100.00
63281;BME280;49406;51.044;3.766;2022-12-07T07:52:50;101999.41;;;2.85;100.00
63281;BME280;49406;51.044;3.766;2022-12-07T07:55:25;102002.60;;;2.87;100.00
63281;BME280;49406;51.044;3.766;2022-12-07T07:58:00;101996.66;;;2.86;100.00
63281;BME280;49406;51.044;3.766;2022-12-07T08:00:35;101993.94;;;2.81;100.00
63281;BME280;49406;51.044;3.766;2022-12-07T08:03:09;101996.54;;;2.72;100.00
63281;BME280;49406;51.044;3.766;2022-12-07T08:05:44;101997.16;;;2.62;100.00
63281;BME280;49406;51.044;3.766;2022-12-07T08:08:19;102007.04;;;2.53;100.00
63281;BME280;49406;51.044;3.766;2022-12-07T08:10:53;102007.88;;;2.45;100.00
63281;BME280;49406;51.044;3.766;2022-12-07T08:13:28;102010.61;;;2.36;100.00
63281;BME280;49406;51.044;3.766;2022-12-07T08:16:08;102013.80;;;2.25;100.00
63281;BME280;49406;51.044;3.766;2022-12-07T08:18:43;102018.13;;;2.17;100.00
63281;BME280;49406;51.044;3.766;2022-12-07T08:21:18;102021.98;;;2.12;100.00
63281;BME280;49406;51.044;3.766;2022-12-07T08:23:52;102023.27;;;2.10;100.00
63281;BME280;49406;51.044;3.766;2022-12-07T08:26:27;102023.58;;;2.10;100.00
63281;BME280;49406;51.044;3.766;2022-12-07T08:29:01;102024.48;;;2.11;100.00
63281;BME280;49406;51.044;3.766;2022-12-07T08:31:36;102033.25;;;2.19;100.00
63281;BME280;49406;51.044;3.766;2022-12-07T08:34:12;102035.25;;;2.29;100.00
63281;BME280;49406;51.044;3.766;2022-12-07T08:36:47;102037.29;;;2.40;100.00
63281;BME280;49406;51.044;3.766;2022-12-07T08:39:22;102045.10;;;2.52;100.00
63281;BME280;49406;51.044;3.766;2022-12-07T08:41:57;102044.10;;;2.67;100.00
63281;BME280;49406;51.044;3.766;2022-12-07T08:44:30;102038.42;;;2.82;100.00
63281;BME280;49406;51.044;3.766;2022-12-07T08:47:06;102035.49;;;2.94;100.00
63281;BME280;49406;51.044;3.766;2022-12-07T08:49:45;102037.06;;;3.06;100.00
63281;BME280;49406;51.044;3.766;2022-12-07T08:52:20;102034.25;;;3.20;100.00
63281;BME280;49406;51.044;3.766;2022-12-07T08:54:55;102030.85;;;3.37;100.00
63281;BME280;49406;51.044;3.766;2022-12-07T08:57:31;102021.83;;;3.49;100.00
63281;BME280;49406;51.044;3.766;2022-12-07T09:00:09;102021.91;;;3.59;100.00
63281;BME280;49406;51.044;3.766;2022-12-07T09:02:44;102020.94;;;3.64;100.00
63281;BME280;49406;51.044;3.766;2022-12-07T09:05:19;102023.21;;;3.68;100.00
63281;BME280;49406;51.044;3.766;2022-12-07T09:07:57;102021.42;;;3.70;100.00
63281;BME280;49406;51.044;3.766;2022-12-07T09:10:34;102020.16;;;3.69;100.00
63281;BME280;49406;51.044;3.766;2022-12-07T09:13:09;102020.85;;;3.69;100.00
63281;BME280;49406;51.044;3.766;2022-12-07T09:15:43;102018.76;;;3.71;100.00
63281;BME280;49406;51.044;3.766;2022-12-07T09:18:18;102017.70;;;3.83;100.00
63281;BME280;49406;51.044;3.766;2022-12-07T09:20:52;102021.30;;;4.02;100.00
63281;BME280;49406;51.044;3.766;2022-12-07T09:23:27;102021.82;;;4.22;100.00
63281;BME280;49406;51.044;3.766;2022-12-07T09:26:02;102018.35;;;4.38;100.00
63281;BME280;49406;51.044;3.766;2022-12-07T09:28:39;102018.55;;;4.52;100.00
63281;BME280;49406;51.044;3.766;2022-12-07T09:31:14;102027.30;;;4.64;100.00
63281;BME280;49406;51.044;3.766;2022-12-07T09:33:54;102035.43;;;4.74;100.00
63281;BME280;49406;51.044;3.766;2022-12-07T09:36:28;102042.57;;;4.78;100.00
63281;BME280;49406;51.044;3.766;2022-12-07T09:39:03;102037.88;;;4.81;100.00
63281;BME280;49406;51.044;3.766;2022-12-07T09:41:41;102033.13;;;4.83;100.00
63281;BME280;49406;51.044;3.766;2022-12-07T09:44:23;102030.45;;;4.85;100.00
63281;BME280;49406;51.044;3.766;2022-12-07T09:46:59;102029.82;;;4.90;100.00
63281;BME280;49406;51.044;3.766;2022-12-07T09:49:33;102027.73;;;4.89;100.00
63281;BME280;49406;51.044;3.766;2022-12-07T09:52:20;102027.29;;;4.91;100.00
63281;BME280;49406;51.044;3.766;2022-12-07T09:54:58;102024.27;;;4.93;100.00
63281;BME280;49406;51.044;3.766;2022-12-07T09:57:33;102018.77;;;4.94;100.00
63281;BME280;49406;51.044;3.766;2022-12-07T10:00:16;102019.07;;;4.96;100.00
63281;BME280;49406;51.044;3.766;2022-12-07T10:02:56;102019.17;;;4.99;100.00
63281;BME280;49406;51.044;3.766;2022-12-07T10:05:34;102017.06;;;5.01;100.00
63281;BME280;49406;51.044;3.766;2022-12-07T10:08:12;102016.08;;;5.03;100.00
63281;BME280;49406;51.044;3.766;2022-12-07T10:10:52;102015.55;;;5.05;100.00
63281;BME280;49406;51.044;3.766;2022-12-07T10:13:37;102013.39;;;5.07;100.00
63281;BME280;49406;51.044;3.766;2022-12-07T10:16:35;102007.36;;;5.08;100.00
63281;BME280;49406;51.044;3.766;2022-12-07T10:19:25;102001.67;;;5.09;100.00
63281;BME280;49406;51.044;3.766;2022-12-07T10:22:03;102001.86;;;5.09;100.00
63281;BME280;49406;51.044;3.766;2022-12-07T10:24:38;101999.69;;;5.11;100.00
63281;BME280;49406;51.044;3.766;2022-12-07T10:27:29;101997.54;;;5.13;100.00
63281;BME280;49406;51.044;3.766;2022-12-07T10:30:12;101987.77;;;5.16;100.00
63281;BME280;49406;51.044;3.766;2022-12-07T10:32:50;101986.22;;;5.20;100.00
63281;BME280;49406;51.044;3.766;2022-12-07T10:35:26;101986.73;;;5.23;100.00
63281;BME280;49406;51.044;3.766;2022-12-07T10:38:07;101984.23;;;5.25;100.00
63281;BME280;49406;51.044;3.766;2022-12-07T10:41:04;101992.44;;;5.33;100.00
63281;BME280;49406;51.044;3.766;2022-12-07T10:43:48;101989.86;;;5.45;100.00
63281;BME280;49406;51.044;3.766;2022-12-07T10:46:45;101985.48;;;5.55;100.00
63281;BME280;49406;51.044;3.766;2022-12-07T10:49:43;101981.58;;;5.68;100.00
63281;BME280;49406;51.044;3.766;2022-12-07T10:52:24;101973.79;;;5.84;100.00
63281;BME280;49406;51.044;3.766;2022-12-07T10:55:13;101981.05;;;5.97;100.00
63281;BME280;49406;51.044;3.766;2022-12-07T10:58:01;101976.92;;;6.06;100.00
63281;BME280;49406;51.044;3.766;2022-12-07T11:00:45;101977.95;;;6.10;100.00
63281;BME280;49406;51.044;3.766;2022-12-07T11:03:35;101978.27;;;6.09;100.00
63281;BME280;49406;51.044;3.766;2022-12-07T11:06:18;101981.77;;;6.06;100.00
63281;BME280;49406;51.044;3.766;2022-12-07T11:09:08;101972.54;;;5.98;100.00
63281;BME280;49406;51.044;3.766;2022-12-07T11:11:49;101961.21;;;5.89;100.00
63281;BME280;49406;51.044;3.766;2022-12-07T11:14:34;101956.55;;;5.82;100.00
63281;BME280;49406;51.044;3.766;2022-12-07T11:17:15;101950.09;;;5.78;100.00
63281;BME280;49406;51.044;3.766;2022-12-07T11:20:05;101945.80;;;5.71;100.00
63281;BME280;49406;51.044;3.766;2022-12-07T11:22:51;101939.44;;;5.65;100.00
63281;BME280;49406;51.044;3.766;2022-12-07T11:25:34;101939.19;;;5.67;100.00
63281;BME280;49406;51.044;3.766;2022-12-07T11:28:25;101939.21;;;5.75;100.00
63281;BME280;49406;51.044;3.766;2022-12-07T11:31:12;101938.55;;;5.84;100.00
63281;BME280;49406;51.044;3.766;2022-12-07T11:33:52;101938.70;;;5.93;100.00
63281;BME280;49406;51.044;3.766;2022-12-07T11:36:38;101924.71;;;6.00;100.00
63281;BME280;49406;51.044;3.766;2022-12-07T11:39:20;101926.45;;;6.07;100.00
63281;BME280;49406;51.044;3.766;2022-12-07T11:42:03;101933.55;;;6.11;100.00
63281;BME280;49406;51.044;3.766;2022-12-07T11:44:47;101931.72;;;6.09;100.00
63281;BME280;49406;51.044;3.766;2022-12-07T11:47:30;101928.88;;;6.07;100.00
63281;BME280;49406;51.044;3.766;2022-12-07T11:50:13;101926.48;;;6.08;100.00
63281;BME280;49406;51.044;3.766;2022-12-07T11:52:55;101925.02;;;6.10;100.00
63281;BME280;49406;51.044;3.766;2022-12-07T11:55:42;101926.27;;;6.23;100.00
63281;BME280;49406;51.044;3.766;2022-12-07T11:58:27;101926.52;;;6.33;100.00
63281;BME280;49406;51.044;3.766;2022-12-07T12:01:24;101922.61;;;6.43;100.00
63281;BME280;49406;51.044;3.766;2022-12-07T12:04:05;101922.84;;;6.49;100.00
63281;BME280;49406;51.044;3.766;2022-12-07T12:06:43;101916.30;;;6.50;100.00
63281;BME280;49406;51.044;3.766;2022-12-07T12:09:17;101906.46;;;6.52;100.00
63281;BME280;49406;51.044;3.766;2022-12-07T12:12:13;101905.29;;;6.53;100.00
63281;BME280;49406;51.044;3.766;2022-12-07T12:14:59;101897.07;;;6.52;100.00
63281;BME280;49406;51.044;3.766;2022-12-07T12:20:49;101888.02;;;6.47;100.00
63281;BME280;49406;51.044;3.766;2022-12-07T12:23:27;101878.63;;;6.42;100.00
63281;BME280;49406;51.044;3.766;2022-12-07T12:26:07;101878.72;;;6.45;100.00
63281;BME280;49406;51.044;3.766;2022-12-07T12:28:50;101878.40;;;6.45;100.00
63281;BME280;49406;51.044;3.766;2022-12-07T12:31:40;101876.14;;;6.45;100.00
63281;BME280;49406;51.044;3.766;2022-12-07T12:34:40;101870.66;;;6.47;100.00
63281;BME280;49406;51.044;3.766;2022-12-07T12:37:47;101864.14;;;6.45;100.00
63281;BME280;49406;51.044;3.766;2022-12-07T12:40:44;101866.80;;;6.42;100.00
63281;BME280;49406;51.044;3.766;2022-12-07T12:46:48;101862.47;;;6.42;100.00
63281;BME280;49406;51.044;3.766;2022-12-07T12:49:35;101862.98;;;6.51;100.00
63281;BME280;49406;51.044;3.766;2022-12-07T12:55:45;101857.33;;;6.65;100.00
63281;BME280;49406;51.044;3.766;2022-12-07T12:58:33;101852.30;;;6.66;100.00
63281;BME280;49406;51.044;3.766;2022-12-07T13:01:42;101854.34;;;6.69;100.00
63281;BME280;49406;51.044;3.766;2022-12-07T13:04:47;101848.77;;;6.69;100.00
63281;BME280;49406;51.044;3.766;2022-12-07T13:07:55;101849.36;;;6.74;100.00
63281;BME280;49406;51.044;3.766;2022-12-07T13:10:42;101847.71;;;6.81;100.00
63281;BME280;49406;51.044;3.766;2022-12-07T13:13:36;101846.47;;;6.85;100.00
63281;BME280;49406;51.044;3.766;2022-12-07T13:22:44;101833.42;;;6.89;100.00
63281;BME280;49406;51.044;3.766;2022-12-07T13:25:29;101831.59;;;6.87;100.00
63281;BME280;49406;51.044;3.766;2022-12-07T13:28:07;101821.27;;;6.85;100.00
63281;BME280;49406;51.044;3.766;2022-12-07T13:30:50;101814.80;;;6.84;100.00
63281;BME280;49406;51.044;3.766;2022-12-07T13:33:27;101814.34;;;6.81;100.00
63281;BME280;49406;51.044;3.766;2022-12-07T13:36:02;101815.27;;;6.78;100.00
63281;BME280;49406;51.044;3.766;2022-12-07T13:38:37;101811.88;;;6.76;100.00
63281;BME280;49406;51.044;3.766;2022-12-07T13:41:17;101807.67;;;6.75;100.00
63281;BME280;49406;51.044;3.766;2022-12-07T13:44:00;101803.80;;;6.73;100.00
63281;BME280;49406;51.044;3.766;2022-12-07T13:46:46;101801.88;;;6.73;100.00
63281;BME280;49406;51.044;3.766;2022-12-07T13:49:26;101803.70;;;6.76;100.00
63281;BME280;49406;51.044;3.766;2022-12-07T13:52:17;101802.54;;;6.77;100.00
63281;BME280;49406;51.044;3.766;2022-12-07T13:54:57;101802.96;;;6.79;100.00
63281;BME280;49406;51.044;3.766;2022-12-07T13:57:32;101793.78;;;6.80;100.00
63281;BME280;49406;51.044;3.766;2022-12-07T14:00:17;101791.20;;;6.81;100.00
63281;BME280;49406;51.044;3.766;2022-12-07T14:03:00;101783.89;;;6.80;100.00
63281;BME280;49406;51.044;3.766;2022-12-07T14:05:36;101787.38;;;6.80;100.00
63281;BME280;49406;51.044;3.766;2022-12-07T14:08:24;101786.98;;;6.79;100.00
63281;BME280;49406;51.044;3.766;2022-12-07T14:10:59;101789.70;;;6.78;100.00